createdAt,value
2023-02-11T00:01:45.260Z,100.00
2023-02-11T00:04:13.726Z,100.00
2023-02-11T00:06:42.079Z,100.00
2023-02-11T00:09:11.200Z,100.00
2023-02-11T00:11:39.766Z,100.00
2023-02-11T00:14:08.644Z,100.00
2023-02-11T00:16:37.463Z,100.00
2023-02-11T00:19:06.987Z,100.00
2023-02-11T00:21:36.397Z,100.00
2023-02-11T00:24:05.010Z,100.00
2023-02-11T00:26:35.632Z,100.00
2023-02-11T00:29:05.413Z,100.00
2023-02-11T00:31:36.584Z,100.00
2023-02-11T00:34:05.180Z,100.00
2023-02-11T00:36:33.798Z,100.00
2023-02-11T00:39:02.326Z,100.00
2023-02-11T00:41:31.937Z,100.00
2023-02-11T00:44:01.497Z,99.99
2023-02-11T00:46:30.066Z,99.88
2023-02-11T00:48:58.521Z,99.71
2023-02-11T00:51:28.840Z,99.63
2023-02-11T00:53:57.400Z,99.39
2023-02-11T00:56:26.378Z,99.21
2023-02-11T00:58:55.345Z,99.10
2023-02-11T01:01:24.094Z,98.95
2023-02-11T01:03:52.892Z,98.94
2023-02-11T01:06:21.873Z,98.91
2023-02-11T01:08:52.939Z,98.78
2023-02-11T01:11:22.730Z,98.72
2023-02-11T01:13:51.826Z,98.62
2023-02-11T01:16:21.634Z,98.64
2023-02-11T01:18:50.191Z,98.51
2023-02-11T01:21:19.076Z,98.48
2023-02-11T01:23:48.330Z,98.54
2023-02-11T01:26:17.235Z,98.52
2023-02-11T01:28:46.001Z,98.51
2023-02-11T01:31:14.922Z,98.35
2023-02-11T01:33:43.398Z,98.22
2023-02-11T01:36:12.793Z,98.19
2023-02-11T01:38:41.477Z,98.13
2023-02-11T01:41:13.249Z,98.19
2023-02-11T01:43:48.172Z,98.06
2023-02-11T01:46:33.917Z,97.96
2023-02-11T01:49:10.395Z,97.95
2023-02-11T01:51:43.826Z,97.86
2023-02-11T01:54:34.130Z,97.82
2023-02-11T01:57:22.797Z,97.72
2023-02-11T02:00:10.207Z,97.23
2023-02-11T02:02:47.854Z,97.08
2023-02-11T02:05:24.896Z,96.86
2023-02-11T02:08:19.660Z,96.42
2023-02-11T02:10:56.701Z,95.97
2023-02-11T02:13:25.949Z,96.08
2023-02-11T02:16:00.899Z,96.11
2023-02-11T02:18:53.707Z,95.78
2023-02-11T02:21:59.594Z,95.55
2023-02-11T02:24:50.736Z,95.32
2023-02-11T02:27:47.651Z,95.32
2023-02-11T02:30:46.123Z,95.43
2023-02-11T02:33:24.671Z,95.05
2023-02-11T02:35:53.119Z,95.18
2023-02-11T02:38:31.042Z,94.98
2023-02-11T02:41:12.939Z,95.03
2023-02-11T02:43:45.703Z,95.01
2023-02-11T02:46:19.356Z,94.72
2023-02-11T02:48:51.663Z,94.37
2023-02-11T02:51:42.737Z,94.39
2023-02-11T02:54:39.370Z,94.64
2023-02-11T02:57:26.366Z,94.58
2023-02-11T03:00:23.088Z,94.55
2023-02-11T03:02:58.691Z,94.52
2023-02-11T03:06:09.095Z,94.58
2023-02-11T03:08:49.779Z,94.68
2023-02-11T03:11:20.759Z,94.44
2023-02-11T03:13:50.983Z,94.11
2023-02-11T03:16:26.331Z,94.03
2023-02-11T03:19:07.341Z,93.84
2023-02-11T03:21:38.860Z,93.63
2023-02-11T03:24:12.659Z,93.25
2023-02-11T03:26:50.315Z,92.84
2023-02-11T03:29:31.107Z,92.62
2023-02-11T03:32:16.399Z,92.67
2023-02-11T03:34:54.642Z,92.64
2023-02-11T03:37:46.735Z,92.53
2023-02-11T03:40:24.204Z,92.50
2023-02-11T03:43:03.958Z,92.46
2023-02-11T03:45:32.958Z,92.09
2023-02-11T03:48:06.485Z,91.67
2023-02-11T03:50:37.650Z,91.62
2023-02-11T03:53:06.400Z,91.65
2023-02-11T03:55:39.380Z,91.43
2023-02-11T03:58:09.314Z,91.36
2023-02-11T04:00:42.103Z,91.20
2023-02-11T04:03:11.909Z,91.32
2023-02-11T04:05:41.558Z,91.29
2023-02-11T04:08:09.947Z,90.85
2023-02-11T04:10:38.231Z,90.64
2023-02-11T04:13:07.138Z,90.43
2023-02-11T04:15:35.462Z,90.54
2023-02-11T04:18:04.360Z,90.44
2023-02-11T04:20:32.799Z,90.21
2023-02-11T04:23:01.313Z,90.27
2023-02-11T04:25:29.898Z,90.22
2023-02-11T04:27:58.816Z,90.10
2023-02-11T04:30:28.228Z,89.88
2023-02-11T04:32:58.291Z,90.22
2023-02-11T04:35:26.790Z,89.94
2023-02-11T04:37:55.167Z,89.84
2023-02-11T04:40:24.110Z,90.02
2023-02-11T04:42:55.719Z,89.84
2023-02-11T04:45:24.405Z,89.87
2023-02-11T04:47:52.917Z,89.88
2023-02-11T04:50:21.267Z,89.89
2023-02-11T04:52:49.626Z,90.08
2023-02-11T04:55:18.259Z,89.78
2023-02-11T04:57:46.663Z,89.84
2023-02-11T05:00:15.932Z,89.83
2023-02-11T05:02:44.346Z,89.89
2023-02-11T05:05:12.891Z,89.67
2023-02-11T05:07:41.335Z,89.46
2023-02-11T05:10:09.999Z,89.71
2023-02-11T05:12:38.292Z,89.55
2023-02-11T05:15:07.198Z,89.43
2023-02-11T05:17:35.711Z,89.34
2023-02-11T05:20:04.552Z,89.34
2023-02-11T05:22:33.287Z,89.32
2023-02-11T05:25:01.793Z,89.05
2023-02-11T05:27:30.295Z,88.78
2023-02-11T05:29:58.790Z,88.89
2023-02-11T05:32:28.174Z,88.89
2023-02-11T05:34:56.504Z,88.36
2023-02-11T05:37:26.148Z,88.68
2023-02-11T05:39:54.619Z,88.74
2023-02-11T05:42:23.063Z,88.56
2023-02-11T05:44:51.851Z,88.51
2023-02-11T05:47:20.276Z,88.37
2023-02-11T05:49:48.915Z,88.16
2023-02-11T05:52:22.897Z,88.04
2023-02-11T05:54:51.629Z,88.29
2023-02-11T05:57:20.736Z,88.23
2023-02-11T05:59:51.360Z,88.07
2023-02-11T06:02:20.472Z,87.71
2023-02-11T06:04:50.246Z,87.68
2023-02-11T06:07:20.471Z,87.35
2023-02-11T06:09:50.371Z,87.21
2023-02-11T06:12:19.845Z,86.97
2023-02-11T06:14:48.811Z,86.58
2023-02-11T06:17:18.334Z,86.52
2023-02-11T06:19:48.478Z,86.74
2023-02-11T06:22:18.742Z,86.86
2023-02-11T06:25:00.892Z,86.71
2023-02-11T06:27:34.036Z,86.44
2023-02-11T06:30:03.761Z,86.76
2023-02-11T06:32:43.771Z,86.82
2023-02-11T06:35:17.008Z,86.78
2023-02-11T06:37:47.270Z,86.67
2023-02-11T06:40:16.241Z,87.13
2023-02-11T06:42:45.739Z,87.08
2023-02-11T06:45:15.003Z,86.94
2023-02-11T06:47:44.712Z,86.72
2023-02-11T06:50:16.433Z,86.62
2023-02-11T06:52:45.640Z,86.42
2023-02-11T06:55:15.794Z,86.55
2023-02-11T06:57:44.741Z,86.40
2023-02-11T07:00:19.762Z,86.71
2023-02-11T07:02:51.337Z,86.34
2023-02-11T07:05:20.199Z,86.35
2023-02-11T07:07:49.189Z,86.21
2023-02-11T07:10:18.616Z,86.18
2023-02-11T07:12:48.860Z,86.12
2023-02-11T07:15:19.860Z,86.34
2023-02-11T07:17:48.810Z,86.37
2023-02-11T07:20:17.999Z,86.68
2023-02-11T07:22:48.593Z,86.83
2023-02-11T07:25:18.278Z,86.85
2023-02-11T07:27:47.381Z,87.16
2023-02-11T07:30:17.285Z,87.49
2023-02-11T07:32:47.714Z,87.84
2023-02-11T07:35:19.283Z,88.03
2023-02-11T07:37:49.248Z,88.31
2023-02-11T07:40:18.899Z,88.60
2023-02-11T07:42:47.638Z,88.85
2023-02-11T07:45:17.269Z,89.17
2023-02-11T07:47:46.164Z,89.74
2023-02-11T07:50:15.249Z,90.42
2023-02-11T07:52:44.172Z,91.32
2023-02-11T07:55:12.697Z,92.53
2023-02-11T07:57:42.845Z,93.33
2023-02-11T08:00:12.622Z,93.83
2023-02-11T08:02:41.393Z,93.91
2023-02-11T08:05:10.417Z,94.28
2023-02-11T08:07:56.422Z,94.68
2023-02-11T08:10:27.468Z,94.71
2023-02-11T08:12:58.010Z,95.20
2023-02-11T08:15:29.902Z,96.83
2023-02-11T08:17:59.519Z,98.12
2023-02-11T08:20:32.323Z,98.91
2023-02-11T08:23:02.799Z,99.90
2023-02-11T08:25:32.836Z,100.00
2023-02-11T08:28:01.870Z,100.00
2023-02-11T08:30:32.793Z,100.00
2023-02-11T08:33:03.327Z,100.00
2023-02-11T08:35:37.061Z,100.00
2023-02-11T08:38:07.811Z,100.00
2023-02-11T08:41:31.220Z,100.00
2023-02-11T08:44:26.060Z,100.00
2023-02-11T08:49:44.078Z,100.00
2023-02-11T08:52:27.091Z,100.00
2023-02-11T08:55:19.895Z,100.00
2023-02-11T08:58:07.875Z,100.00
2023-02-11T09:00:46.609Z,100.00
2023-02-11T09:03:29.610Z,100.00
2023-02-11T09:06:40.268Z,100.00
2023-02-11T09:09:20.554Z,100.00
2023-02-11T09:12:00.895Z,100.00
2023-02-11T09:14:41.925Z,100.00
2023-02-11T09:17:18.192Z,100.00
2023-02-11T09:19:49.058Z,100.00
2023-02-11T09:22:25.824Z,100.00
2023-02-11T09:25:08.574Z,100.00
2023-02-11T09:27:46.694Z,100.00
2023-02-11T09:30:23.770Z,100.00
2023-02-11T09:33:39.824Z,100.00
2023-02-11T09:36:26.118Z,100.00
2023-02-11T09:39:11.241Z,100.00
2023-02-11T09:42:26.475Z,100.00
2023-02-11T09:45:05.958Z,100.00
2023-02-11T09:47:53.923Z,100.00
2023-02-11T09:51:00.669Z,100.00
2023-02-11T09:53:46.768Z,100.00
2023-02-11T09:56:25.828Z,100.00
2023-02-11T09:58:58.498Z,100.00
2023-02-11T10:01:48.430Z,100.00
2023-02-11T10:04:38.188Z,100.00
2023-02-11T10:07:41.251Z,100.00
2023-02-11T10:10:30.186Z,100.00
2023-02-11T10:13:29.124Z,100.00
2023-02-11T10:16:22.319Z,100.00
2023-02-11T10:18:54.174Z,100.00
2023-02-11T10:21:55.655Z,100.00
2023-02-11T10:24:33.793Z,100.00
2023-02-11T10:27:22.304Z,100.00
2023-02-11T10:30:19.311Z,100.00
2023-02-11T10:33:28.302Z,100.00
2023-02-11T10:38:53.181Z,100.00
2023-02-11T10:41:55.450Z,100.00
2023-02-11T10:44:42.144Z,100.00
2023-02-11T10:47:24.164Z,100.00
2023-02-11T10:50:04.600Z,100.00
2023-02-11T10:52:44.078Z,100.00
2023-02-11T10:55:14.222Z,100.00
2023-02-11T10:58:03.624Z,100.00
2023-02-11T11:00:51.919Z,100.00
2023-02-11T11:03:26.993Z,100.00
2023-02-11T11:06:04.570Z,100.00
2023-02-11T11:08:48.809Z,100.00
2023-02-11T11:11:24.653Z,100.00
2023-02-11T11:13:59.685Z,100.00
2023-02-11T11:16:38.456Z,100.00
2023-02-11T11:19:08.123Z,100.00
2023-02-11T11:21:50.510Z,100.00
2023-02-11T11:24:34.418Z,100.00
2023-02-11T11:27:05.878Z,100.00
2023-02-11T11:29:44.720Z,100.00
2023-02-11T11:32:26.838Z,100.00
2023-02-11T11:34:59.978Z,100.00
2023-02-11T11:37:37.005Z,100.00
2023-02-11T11:40:16.807Z,100.00
2023-02-11T11:42:48.563Z,100.00
2023-02-11T11:45:20.107Z,100.00
2023-02-11T11:48:00.985Z,100.00
2023-02-11T11:50:33.612Z,100.00
2023-02-11T11:53:15.828Z,100.00
2023-02-11T11:55:59.584Z,100.00
2023-02-11T11:58:31.457Z,100.00
2023-02-11T12:01:36.238Z,100.00
2023-02-11T12:04:44.753Z,100.00
2023-02-11T12:07:16.799Z,100.00
2023-02-11T12:10:15.858Z,100.00
2023-02-11T12:13:22.483Z,100.00
2023-02-11T12:16:16.747Z,100.00
2023-02-11T12:19:19.584Z,100.00
2023-02-11T12:21:56.904Z,100.00
2023-02-11T12:24:38.755Z,100.00
2023-02-11T12:27:29.470Z,100.00
2023-02-11T12:30:28.951Z,100.00
2023-02-11T12:33:15.744Z,100.00
2023-02-11T12:35:56.157Z,100.00
2023-02-11T12:38:27.445Z,100.00
2023-02-11T12:41:14.197Z,100.00
2023-02-11T12:43:46.809Z,100.00
2023-02-11T12:46:44.098Z,100.00
2023-02-11T12:49:46.304Z,100.00
2023-02-11T12:52:30.791Z,100.00
2023-02-11T12:55:12.147Z,100.00
2023-02-11T12:57:43.820Z,100.00
2023-02-11T13:00:26.136Z,100.00
2023-02-11T13:03:11.688Z,100.00
2023-02-11T13:05:54.930Z,100.00
2023-02-11T13:08:34.424Z,100.00
2023-02-11T13:11:08.716Z,100.00
2023-02-11T13:13:52.443Z,100.00
2023-02-11T13:16:46.334Z,100.00
2023-02-11T13:19:24.311Z,100.00
2023-02-11T13:22:11.947Z,100.00
2023-02-11T13:24:50.293Z,100.00
2023-02-11T13:27:21.597Z,100.00
2023-02-11T13:30:07.318Z,100.00
2023-02-11T13:33:19.646Z,100.00
2023-02-11T13:35:57.809Z,100.00
2023-02-11T13:38:29.048Z,100.00
2023-02-11T13:41:04.092Z,100.00
2023-02-11T13:43:35.877Z,100.00
2023-02-11T13:46:12.267Z,100.00
2023-02-11T13:48:53.625Z,100.00
2023-02-11T13:51:42.925Z,100.00
2023-02-11T13:54:24.014Z,100.00
2023-02-11T13:57:31.559Z,100.00
2023-02-11T14:00:30.089Z,100.00
2023-02-11T14:03:30.461Z,100.00
2023-02-11T14:06:33.897Z,100.00
2023-02-11T14:09:13.938Z,100.00
2023-02-11T14:12:25.457Z,100.00
2023-02-11T14:15:13.696Z,100.00
2023-02-11T14:17:43.872Z,100.00
2023-02-11T14:20:37.543Z,100.00
2023-02-11T14:23:23.562Z,100.00
2023-02-11T14:26:08.949Z,100.00
2023-02-11T14:28:48.580Z,100.00
2023-02-11T14:31:50.100Z,100.00
2023-02-11T14:35:00.789Z,100.00
2023-02-11T14:37:50.829Z,100.00
2023-02-11T14:40:34.781Z,100.00
2023-02-11T14:43:29.448Z,100.00
2023-02-11T14:46:01.794Z,100.00
2023-02-11T14:49:06.563Z,100.00
2023-02-11T14:51:45.731Z,100.00
2023-02-11T14:54:27.050Z,100.00
2023-02-11T14:57:17.666Z,100.00
2023-02-11T15:00:28.033Z,100.00
2023-02-11T15:02:58.713Z,100.00
2023-02-11T15:05:30.961Z,100.00
2023-02-11T15:08:09.748Z,100.00
2023-02-11T15:10:48.996Z,100.00
2023-02-11T15:13:29.040Z,100.00
2023-02-11T15:16:06.588Z,100.00
2023-02-11T15:18:46.093Z,100.00
2023-02-11T15:21:27.797Z,100.00
2023-02-11T15:24:07.157Z,100.00
2023-02-11T15:26:36.903Z,100.00
2023-02-11T15:29:18.841Z,100.00
2023-02-11T15:31:52.400Z,100.00
2023-02-11T15:34:28.186Z,100.00
2023-02-11T15:36:58.170Z,100.00
2023-02-11T15:39:42.740Z,100.00
2023-02-11T15:42:43.901Z,100.00
2023-02-11T15:45:29.288Z,100.00
2023-02-11T15:48:22.270Z,100.00
2023-02-11T15:51:02.212Z,100.00
2023-02-11T15:53:41.061Z,100.00
2023-02-11T15:56:16.350Z,100.00
2023-02-11T15:58:47.986Z,100.00
2023-02-11T16:01:17.093Z,100.00
2023-02-11T16:03:50.816Z,100.00
2023-02-11T16:06:26.063Z,100.00
2023-02-11T16:09:17.726Z,100.00
2023-02-11T16:11:46.438Z,100.00
2023-02-11T16:14:31.538Z,100.00
2023-02-11T16:17:03.438Z,100.00
2023-02-11T16:19:34.892Z,100.00
2023-02-11T16:22:10.640Z,100.00
2023-02-11T16:24:39.884Z,100.00
2023-02-11T16:27:24.299Z,100.00
2023-02-11T16:29:53.202Z,100.00
2023-02-11T16:32:23.877Z,100.00
2023-02-11T16:35:01.734Z,100.00
2023-02-11T16:37:33.117Z,100.00
2023-02-11T16:40:02.446Z,100.00
2023-02-11T16:42:30.883Z,100.00
2023-02-11T16:45:00.073Z,100.00
2023-02-11T16:47:29.501Z,100.00
2023-02-11T16:50:02.902Z,100.00
2023-02-11T16:52:31.985Z,100.00
2023-02-11T16:55:00.765Z,100.00
2023-02-11T16:57:30.568Z,100.00
2023-02-11T17:00:01.265Z,100.00
2023-02-11T17:02:31.093Z,100.00
2023-02-11T17:05:04.094Z,100.00
2023-02-11T17:07:33.188Z,100.00
2023-02-11T17:10:02.853Z,100.00
2023-02-11T17:12:32.345Z,100.00
2023-02-11T17:15:01.384Z,100.00
2023-02-11T17:17:30.639Z,100.00
2023-02-11T17:20:00.688Z,100.00
2023-02-11T17:22:32.071Z,100.00
2023-02-11T17:25:02.669Z,100.00
2023-02-11T17:27:35.367Z,100.00
2023-02-11T17:30:04.722Z,100.00
2023-02-11T17:32:33.689Z,100.00
2023-02-11T17:35:02.284Z,100.00
2023-02-11T17:37:30.972Z,100.00
2023-02-11T17:39:59.698Z,100.00
2023-02-11T17:42:29.446Z,100.00
2023-02-11T17:44:58.535Z,100.00
2023-02-11T17:47:31.908Z,100.00
2023-02-11T17:50:05.932Z,100.00
2023-02-11T17:52:39.544Z,100.00
2023-02-11T17:55:11.084Z,100.00
2023-02-11T17:57:40.883Z,100.00
2023-02-11T18:00:11.401Z,100.00
2023-02-11T18:02:40.109Z,100.00
2023-02-11T18:05:10.939Z,100.00
2023-02-11T18:07:39.684Z,100.00
2023-02-11T18:10:09.223Z,100.00
2023-02-11T18:12:37.886Z,100.00
2023-02-11T18:15:07.108Z,100.00
2023-02-11T18:17:36.549Z,100.00
2023-02-11T18:20:05.950Z,100.00
2023-02-11T18:22:39.716Z,100.00
2023-02-11T18:25:11.728Z,100.00
2023-02-11T18:27:42.497Z,100.00
2023-02-11T18:30:15.655Z,100.00
2023-02-11T18:32:44.595Z,100.00
2023-02-11T18:35:15.455Z,100.00
2023-02-11T18:37:44.087Z,100.00
2023-02-11T18:40:15.482Z,100.00
2023-02-11T18:42:46.181Z,100.00
2023-02-11T18:45:16.123Z,100.00
2023-02-11T18:47:45.026Z,100.00
2023-02-11T18:50:15.880Z,100.00
2023-02-11T18:52:44.558Z,100.00
2023-02-11T18:55:15.055Z,100.00
2023-02-11T18:57:43.866Z,100.00
2023-02-11T19:00:14.086Z,100.00
2023-02-11T19:02:43.041Z,100.00
2023-02-11T19:05:12.697Z,100.00
2023-02-11T19:07:42.450Z,100.00
2023-02-11T19:10:14.040Z,100.00
2023-02-11T19:12:44.461Z,100.00
2023-02-11T19:15:14.658Z,100.00
2023-02-11T19:17:43.123Z,100.00
2023-02-11T19:20:12.545Z,100.00
2023-02-11T19:22:41.452Z,100.00
2023-02-11T19:25:11.406Z,100.00
2023-02-11T19:27:42.331Z,100.00
2023-02-11T19:30:11.442Z,100.00
2023-02-11T19:32:40.158Z,100.00
2023-02-11T19:35:09.454Z,100.00
2023-02-11T19:37:38.500Z,100.00
2023-02-11T19:40:09.101Z,100.00
2023-02-11T19:42:38.287Z,100.00
2023-02-11T19:45:10.146Z,100.00
2023-02-11T19:47:41.088Z,100.00
2023-02-11T19:50:10.412Z,100.00
2023-02-11T19:52:40.925Z,100.00
2023-02-11T19:55:11.257Z,100.00
2023-02-11T19:57:42.330Z,100.00
2023-02-11T20:00:21.699Z,100.00
2023-02-11T20:02:50.569Z,100.00
2023-02-11T20:05:23.482Z,100.00
2023-02-11T20:07:53.708Z,100.00
2023-02-11T20:10:24.390Z,100.00
2023-02-11T20:12:54.057Z,100.00
2023-02-11T20:15:27.594Z,100.00
2023-02-11T20:17:57.603Z,100.00
2023-02-11T20:20:26.867Z,100.00
2023-02-11T20:23:02.664Z,100.00
2023-02-11T20:25:32.092Z,100.00
2023-02-11T20:28:01.644Z,100.00
2023-02-11T20:30:34.008Z,100.00
2023-02-11T20:33:03.758Z,100.00
2023-02-11T20:35:33.126Z,100.00
2023-02-11T20:38:03.656Z,100.00
2023-02-11T20:40:34.678Z,100.00
2023-02-11T20:43:06.464Z,100.00
2023-02-11T20:45:39.045Z,100.00
2023-02-11T20:48:08.508Z,100.00
2023-02-11T20:50:37.864Z,100.00
2023-02-11T20:53:08.192Z,100.00
2023-02-11T20:55:39.787Z,100.00
2023-02-11T20:58:10.079Z,100.00
2023-02-11T21:00:40.102Z,100.00
2023-02-11T21:03:09.847Z,100.00
2023-02-11T21:05:40.985Z,100.00
2023-02-11T21:08:11.289Z,100.00
2023-02-11T21:10:51.709Z,100.00
2023-02-11T21:13:22.418Z,100.00
2023-02-11T21:15:57.305Z,100.00
2023-02-11T21:18:27.016Z,100.00
2023-02-11T21:20:56.623Z,100.00
2023-02-11T21:23:26.820Z,100.00
2023-02-11T21:25:57.752Z,100.00
2023-02-11T21:28:27.399Z,100.00
2023-02-11T21:31:03.549Z,100.00
2023-02-11T21:33:34.893Z,100.00
2023-02-11T21:36:04.885Z,100.00
2023-02-11T21:38:35.681Z,100.00
2023-02-11T21:41:08.044Z,100.00
2023-02-11T21:43:45.775Z,100.00
2023-02-11T21:46:15.902Z,100.00
2023-02-11T21:48:49.638Z,98.87
2023-02-11T21:51:23.519Z,98.36
2023-02-11T21:54:04.554Z,98.25
2023-02-11T21:56:58.480Z,96.25
2023-02-11T21:59:34.348Z,96.21
2023-02-11T22:02:03.567Z,95.75
2023-02-11T22:04:33.866Z,96.27
2023-02-11T22:07:06.055Z,96.66
2023-02-11T22:09:35.041Z,95.26
2023-02-11T22:12:04.649Z,94.83
2023-02-11T22:14:35.609Z,93.20
2023-02-11T22:17:04.856Z,93.98
2023-02-11T22:19:34.646Z,92.60
2023-02-11T22:22:03.245Z,91.92
2023-02-11T22:24:32.282Z,91.97
2023-02-11T22:27:00.946Z,93.45
2023-02-11T22:29:29.454Z,93.07
2023-02-11T22:31:57.969Z,93.88
2023-02-11T22:34:26.577Z,94.08
2023-02-11T22:36:55.312Z,92.76
2023-02-11T22:39:25.282Z,92.56
2023-02-11T22:41:57.545Z,93.30
2023-02-11T22:44:26.702Z,93.94
2023-02-11T22:46:56.701Z,93.60
2023-02-11T22:49:26.727Z,93.73
2023-02-11T22:51:58.566Z,93.62
2023-02-11T22:54:30.172Z,93.14
2023-02-11T22:57:00.677Z,93.14
2023-02-11T22:59:30.212Z,93.30
2023-02-11T23:01:59.590Z,93.04
2023-02-11T23:04:31.325Z,92.73
2023-02-11T23:07:01.652Z,92.82
2023-02-11T23:09:30.206Z,92.89
2023-02-11T23:11:58.793Z,92.38
2023-02-11T23:14:27.540Z,90.95
2023-02-11T23:16:56.783Z,89.97
2023-02-11T23:19:25.422Z,88.94
2023-02-11T23:21:57.833Z,87.06
2023-02-11T23:24:26.304Z,87.93
2023-02-11T23:26:55.048Z,88.97
2023-02-11T23:29:23.563Z,89.57
2023-02-11T23:31:52.303Z,89.05
2023-02-11T23:34:25.502Z,89.18
2023-02-11T23:36:54.818Z,89.08
2023-02-11T23:39:23.403Z,88.68
2023-02-11T23:41:59.104Z,88.88
2023-02-11T23:44:28.217Z,88.47
2023-02-11T23:46:56.944Z,88.26
2023-02-11T23:49:28.305Z,88.15
2023-02-11T23:51:56.854Z,88.45
2023-02-11T23:54:25.628Z,88.80
2023-02-11T23:56:56.573Z,88.30
2023-02-11T23:59:25.019Z,88.23
